Time;durP1;ratioP1;P1;durP2;ratioP2;P2;SDS_P1;SDS_P2;PMS_P1;PMS_P2;Temp;Humidity;BMP_temperature;BMP_pressure;BME280_temperature;BME280_humidity;BME280_pressure;Samples;Min_cycle;Max_cycle;Signal;HPM_P1;HPM_P2
2023/11/14 00:00:31;;;;;;;20.30;3.50;;;;;;;;;;4975564;28;20281;-79
2023/11/14 00:02:58;;;;;;;19.70;3.60;;;;;;;;;;4975515;28;20302;-78
2023/11/14 00:05:25;;;;;;;25.90;3.83;;;;;;;;;;4975570;28;20680;-78
2023/11/14 00:07:52;;;;;;;25.13;4.20;;;;;;;;;;4975412;28;20289;-79
2023/11/14 00:10:19;;;;;;;25.67;3.87;;;;;;;;;;4975412;28;20228;-78
2023/11/14 00:12:47;;;;;;;23.83;4.00;;;;;;;;;;4975408;28;20261;-78
2023/11/14 00:15:15;;;;;;;22.70;3.23;;;;;;;;;;4975622;28;20222;-77
2023/11/14 00:17:43;;;;;;;24.23;3.83;;;;;;;;;;4975312;28;20198;-79
2023/11/14 00:20:10;;;;;;;19.90;3.20;;;;;;;;;;4974891;28;20199;-78
2023/11/14 00:22:38;;;;;;;26.80;4.60;;;;;;;;;;4975270;28;20222;-78
2023/11/14 00:25:05;;;;;;;29.03;4.10;;;;;;;;;;4975265;28;20203;-78
2023/11/14 00:27:33;;;;;;;21.67;4.00;;;;;;;;;;4974571;28;20562;-78
2023/11/14 00:30:00;;;;;;;22.67;3.67;;;;;;;;;;4975003;28;20206;-80
2023/11/14 00:32:28;;;;;;;29.63;4.27;;;;;;;;;;4974664;28;20577;-78
2023/11/14 00:34:55;;;;;;;20.70;4.20;;;;;;;;;;4975024;28;20238;-78
2023/11/14 00:37:22;;;;;;;22.10;3.53;;;;;;;;;;4974598;28;20230;-78
2023/11/14 00:39:50;;;;;;;26.07;4.90;;;;;;;;;;4975187;28;20236;-78
2023/11/14 00:42:17;;;;;;;33.97;3.97;;;;;;;;;;4974304;28;20258;-78
2023/11/14 00:44:44;;;;;;;24.17;3.87;;;;;;;;;;4975079;28;20228;-79
2023/11/14 00:47:12;;;;;;;30.50;3.60;;;;;;;;;;4974797;28;20294;-78
2023/11/14 00:49:40;;;;;;;18.93;3.83;;;;;;;;;;4974473;28;20261;-78
2023/11/14 00:52:07;;;;;;;23.17;4.00;;;;;;;;;;4974689;28;20234;-78
2023/11/14 00:54:35;;;;;;;28.20;3.90;;;;;;;;;;4974513;28;20241;-78
2023/11/14 00:57:02;;;;;;;34.07;3.87;;;;;;;;;;4974144;28;20199;-79
2023/11/14 00:59:30;;;;;;;31.33;3.80;;;;;;;;;;4974450;28;20249;-78
2023/11/14 01:01:58;;;;;;;24.20;3.50;;;;;;;;;;4974450;28;20199;-78
2023/11/14 01:04:25;;;;;;;23.40;3.50;;;;;;;;;;4973970;28;20198;-77
2023/11/14 01:06:54;;;;;;;26.13;3.90;;;;;;;;;;4973765;28;20656;-78
2023/11/14 01:09:21;;;;;;;21.53;4.10;;;;;;;;;;4974430;28;20205;-78
2023/11/14 01:11:49;;;;;;;25.90;4.33;;;;;;;;;;4973742;28;20321;-77
2023/11/14 01:14:16;;;;;;;26.50;3.97;;;;;;;;;;4974287;28;20294;-79
2023/11/14 01:16:44;;;;;;;27.40;4.10;;;;;;;;;;4966351;28;20203;-79
2023/11/14 01:19:11;;;;;;;23.00;3.60;;;;;;;;;;4973891;28;20254;-79
2023/11/14 01:21:38;;;;;;;27.60;3.57;;;;;;;;;;4974417;28;20292;-79
2023/11/14 01:24:07;;;;;;;20.07;3.50;;;;;;;;;;4974343;28;20202;-77
2023/11/14 01:26:35;;;;;;;20.53;3.60;;;;;;;;;;4973459;28;20230;-79
2023/11/14 01:29:03;;;;;;;29.93;3.60;;;;;;;;;;4973593;28;20202;-78
2023/11/14 01:31:30;;;;;;;24.63;3.87;;;;;;;;;;4973504;28;20231;-79
2023/11/14 01:33:57;;;;;;;26.10;4.97;;;;;;;;;;4973996;28;20226;-79
2023/11/14 01:36:25;;;;;;;26.43;3.83;;;;;;;;;;4973523;28;20631;-80
2023/11/14 01:38:52;;;;;;;30.87;5.00;;;;;;;;;;4973510;28;20678;-79
2023/11/14 01:41:21;;;;;;;28.10;4.07;;;;;;;;;;4972795;28;20627;-80
2023/11/14 01:43:48;;;;;;;22.30;4.63;;;;;;;;;;4973285;28;20202;-79
2023/11/14 01:46:16;;;;;;;31.97;4.30;;;;;;;;;;4973402;28;20297;-80
2023/11/14 01:48:43;;;;;;;26.80;3.97;;;;;;;;;;4966099;28;20205;-81
2023/11/14 01:51:11;;;;;;;28.07;3.70;;;;;;;;;;4973450;28;20782;-80
2023/11/14 01:53:38;;;;;;;32.33;4.20;;;;;;;;;;4973385;28;20206;-79
2023/11/14 01:56:06;;;;;;;22.20;3.30;;;;;;;;;;4973524;28;20238;-79
2023/11/14 01:58:34;;;;;;;28.23;3.77;;;;;;;;;;4973600;28;20237;-79
2023/11/14 02:01:02;;;;;;;22.23;3.90;;;;;;;;;;4973379;28;20305;-79
2023/11/14 02:03:30;;;;;;;29.23;3.97;;;;;;;;;;4973010;28;20851;-79
2023/11/14 02:05:57;;;;;;;19.70;3.40;;;;;;;;;;4973331;28;20309;-79
2023/11/14 02:08:24;;;;;;;20.73;3.53;;;;;;;;;;4972687;28;20202;-80
2023/11/14 02:10:52;;;;;;;20.77;3.43;;;;;;;;;;4973261;28;20305;-79
2023/11/14 02:13:19;;;;;;;28.40;3.60;;;;;;;;;;4972866;28;20261;-79
2023/11/14 02:15:47;;;;;;;22.27;3.37;;;;;;;;;;4972965;28;20207;-79
2023/11/14 02:18:18;;;;;;;22.87;3.40;;;;;;;;;;4972833;28;20199;-79
2023/11/14 02:20:45;;;;;;;19.73;3.60;;;;;;;;;;4973528;28;20202;-79
2023/11/14 02:23:15;;;;;;;25.77;3.80;;;;;;;;;;4964960;28;20202;-79
2023/11/14 02:25:44;;;;;;;27.57;3.77;;;;;;;;;;4941151;29;20238;-79
2023/11/14 02:28:11;;;;;;;24.77;3.77;;;;;;;;;;4953881;29;20294;-79
2023/11/14 02:30:39;;;;;;;25.40;4.20;;;;;;;;;;4953766;29;20286;-79
2023/11/14 02:33:06;;;;;;;23.13;3.37;;;;;;;;;;4953345;29;20968;-79
2023/11/14 02:35:33;;;;;;;29.73;3.40;;;;;;;;;;4967946;28;20289;-80
2023/11/14 02:38:01;;;;;;;26.83;3.70;;;;;;;;;;4972378;28;20762;-79
2023/11/14 02:40:28;;;;;;;20.33;4.13;;;;;;;;;;4972856;28;20741;-80
2023/11/14 02:42:58;;;;;;;28.37;3.67;;;;;;;;;;4972829;28;20248;-79
2023/11/14 02:45:26;;;;;;;25.67;3.77;;;;;;;;;;4972431;28;20205;-79
2023/11/14 02:47:54;;;;;;;29.63;3.50;;;;;;;;;;4972243;28;20198;-80
2023/11/14 02:50:33;;;;;;;27.10;3.70;;;;;;;;;;4973081;28;20199;-79
2023/11/14 02:53:00;;;;;;;26.93;4.10;;;;;;;;;;4972022;28;20714;-79
2023/11/14 02:55:27;;;;;;;25.20;3.53;;;;;;;;;;4972828;28;20241;-79
2023/11/14 02:57:56;;;;;;;27.50;3.83;;;;;;;;;;4972298;28;20205;-79
2023/11/14 03:00:24;;;;;;;22.57;3.33;;;;;;;;;;4972511;28;20293;-80
2023/11/14 03:02:51;;;;;;;21.37;3.17;;;;;;;;;;4972880;28;20202;-79
2023/11/14 03:05:19;;;;;;;22.73;3.60;;;;;;;;;;4972031;28;20206;-81
2023/11/14 03:07:47;;;;;;;25.97;3.43;;;;;;;;;;4959396;28;20209;-79
2023/11/14 03:10:14;;;;;;;30.03;4.00;;;;;;;;;;4953203;29;20225;-78
2023/11/14 03:12:41;;;;;;;29.10;3.50;;;;;;;;;;4952836;29;20337;-79
2023/11/14 03:15:11;;;;;;;26.20;3.53;;;;;;;;;;4953407;29;20214;-79
2023/11/14 03:17:38;;;;;;;27.57;3.53;;;;;;;;;;4953104;29;20203;-79
2023/11/14 03:20:06;;;;;;;20.37;3.77;;;;;;;;;;4953256;29;20227;-79
2023/11/14 03:22:33;;;;;;;30.00;3.97;;;;;;;;;;4952334;29;20210;-79
2023/11/14 03:25:01;;;;;;;26.47;3.57;;;;;;;;;;4953240;29;20278;-79
2023/11/14 03:27:28;;;;;;;24.20;4.10;;;;;;;;;;4952909;29;20199;-78
2023/11/14 03:29:55;;;;;;;26.77;3.97;;;;;;;;;;4952945;29;20583;-80
2023/11/14 03:32:24;;;;;;;21.97;3.67;;;;;;;;;;4952878;29;20257;-79
2023/11/14 03:34:52;;;;;;;29.33;3.70;;;;;;;;;;4961783;28;20397;-80
2023/11/14 03:37:19;;;;;;;24.23;3.73;;;;;;;;;;4971658;28;20321;-79
2023/11/14 03:39:48;;;;;;;23.73;3.57;;;;;;;;;;4972399;28;20286;-79
2023/11/14 03:42:15;;;;;;;23.50;3.90;;;;;;;;;;4971707;28;20202;-80
2023/11/14 03:44:42;;;;;;;26.07;3.50;;;;;;;;;;4972102;28;20294;-79
2023/11/14 03:47:10;;;;;;;26.97;4.27;;;;;;;;;;4972201;28;20202;-80
2023/11/14 03:49:38;;;;;;;28.70;4.07;;;;;;;;;;4971869;28;20568;-79
2023/11/14 03:52:06;;;;;;;24.83;4.07;;;;;;;;;;4972134;28;20269;-79
2023/11/14 03:54:33;;;;;;;22.93;3.53;;;;;;;;;;4972001;28;20213;-79
2023/11/14 03:57:00;;;;;;;18.87;2.97;;;;;;;;;;4972336;28;20233;-80
2023/11/14 03:59:28;;;;;;;28.60;4.00;;;;;;;;;;4972137;28;20617;-80
2023/11/14 04:01:56;;;;;;;28.43;3.77;;;;;;;;;;4971994;28;20198;-80
2023/11/14 04:04:23;;;;;;;26.90;4.20;;;;;;;;;;4973469;28;20289;-79
2023/11/14 04:06:52;;;;;;;23.23;3.40;;;;;;;;;;4975571;28;20233;-78
2023/11/14 04:09:19;;;;;;;25.07;3.03;;;;;;;;;;4975944;28;20206;-79
2023/11/14 04:11:46;;;;;;;23.87;3.30;;;;;;;;;;4975374;28;20313;-80
2023/11/14 04:14:14;;;;;;;26.13;3.33;;;;;;;;;;4975532;28;20206;-80
2023/11/14 04:16:41;;;;;;;26.00;3.73;;;;;;;;;;4975546;28;20281;-78
2023/11/14 04:19:09;;;;;;;29.87;4.20;;;;;;;;;;4974707;28;20757;-80
2023/11/14 04:21:36;;;;;;;25.57;3.10;;;;;;;;;;4975043;28;20579;-80
2023/11/14 04:24:05;;;;;;;26.13;4.10;;;;;;;;;;4975711;28;20207;-79
2023/11/14 04:26:33;;;;;;;24.70;3.80;;;;;;;;;;4975111;28;20667;-79
2023/11/14 04:29:00;;;;;;;25.77;4.10;;;;;;;;;;4974918;28;20277;-79
2023/11/14 04:31:27;;;;;;;25.13;3.70;;;;;;;;;;4974918;28;20202;-79
2023/11/14 04:33:54;;;;;;;27.53;3.33;;;;;;;;;;4975273;28;20236;-79
2023/11/14 04:36:22;;;;;;;22.43;2.90;;;;;;;;;;4974627;28;20719;-79
2023/11/14 04:38:49;;;;;;;23.23;3.70;;;;;;;;;;4974597;28;20249;-80
2023/11/14 04:41:18;;;;;;;23.30;3.73;;;;;;;;;;4975511;28;20297;-79
2023/11/14 04:43:45;;;;;;;30.30;4.30;;;;;;;;;;4975016;28;20285;-80
2023/11/14 04:46:13;;;;;;;26.57;3.57;;;;;;;;;;4974974;28;20207;-80
2023/11/14 04:48:42;;;;;;;21.70;3.40;;;;;;;;;;4974410;28;20208;-80
2023/11/14 04:51:09;;;;;;;23.60;3.30;;;;;;;;;;4974775;28;20210;-79
2023/11/14 04:53:36;;;;;;;28.67;3.57;;;;;;;;;;4974965;28;20664;-79
2023/11/14 04:56:04;;;;;;;23.23;3.30;;;;;;;;;;4974536;28;20226;-80
2023/11/14 04:58:31;;;;;;;27.87;4.50;;;;;;;;;;4974408;28;20639;-80
2023/11/14 05:01:00;;;;;;;25.50;3.23;;;;;;;;;;4974090;28;20210;-79
2023/11/14 05:03:27;;;;;;;25.57;3.30;;;;;;;;;;4974321;28;20202;-79
2023/11/14 05:05:54;;;;;;;24.13;4.00;;;;;;;;;;4974381;28;20285;-79
2023/11/14 05:08:21;;;;;;;25.97;3.77;;;;;;;;;;4974043;28;20226;-80
2023/11/14 05:10:48;;;;;;;25.10;4.77;;;;;;;;;;4974298;28;20937;-79
2023/11/14 05:13:15;;;;;;;22.13;3.73;;;;;;;;;;4974061;28;20790;-80
2023/11/14 05:15:44;;;;;;;30.63;4.53;;;;;;;;;;4973033;28;20198;-79
2023/11/14 05:18:11;;;;;;;29.30;3.73;;;;;;;;;;4973869;28;20300;-79
2023/11/14 05:20:39;;;;;;;25.97;3.80;;;;;;;;;;4974051;28;20233;-80
2023/11/14 05:23:06;;;;;;;16.80;3.60;;;;;;;;;;4974210;28;20207;-79
2023/11/14 05:25:33;;;;;;;26.70;4.63;;;;;;;;;;4973317;28;20261;-79
2023/11/14 05:28:01;;;;;;;23.20;3.50;;;;;;;;;;4973871;28;20695;-79
2023/11/14 05:30:30;;;;;;;21.80;3.70;;;;;;;;;;4973954;28;20210;-79
2023/11/14 05:32:59;;;;;;;26.73;3.63;;;;;;;;;;4973511;28;20230;-80
2023/11/14 05:35:26;;;;;;;26.90;4.17;;;;;;;;;;4973822;28;20202;-79
2023/11/14 05:37:54;;;;;;;20.63;3.20;;;;;;;;;;4973655;28;20674;-79
2023/11/14 05:40:21;;;;;;;24.30;3.43;;;;;;;;;;4973450;28;20205;-79
2023/11/14 05:42:48;;;;;;;23.27;4.23;;;;;;;;;;4973624;28;20208;-79
2023/11/14 05:45:16;;;;;;;22.93;3.30;;;;;;;;;;4973708;28;20286;-79
2023/11/14 05:47:43;;;;;;;29.27;3.80;;;;;;;;;;4973353;28;20203;-79
2023/11/14 05:50:12;;;;;;;27.20;3.73;;;;;;;;;;4973370;28;20208;-80
2023/11/14 05:52:40;;;;;;;27.33;3.73;;;;;;;;;;4973543;28;20230;-79
2023/11/14 05:55:07;;;;;;;21.47;3.30;;;;;;;;;;4973094;28;20198;-79
2023/11/14 05:57:34;;;;;;;24.70;3.83;;;;;;;;;;4973686;28;20209;-79
2023/11/14 06:00:02;;;;;;;28.43;4.13;;;;;;;;;;4973418;28;20293;-79
2023/11/14 06:02:29;;;;;;;23.67;3.80;;;;;;;;;;4973349;28;20245;-79
2023/11/14 06:04:57;;;;;;;32.63;3.90;;;;;;;;;;4973072;28;20230;-79
2023/11/14 06:07:25;;;;;;;30.03;3.97;;;;;;;;;;4973612;28;20282;-78
2023/11/14 06:09:52;;;;;;;26.23;3.20;;;;;;;;;;4973481;28;20293;-79
2023/11/14 06:12:19;;;;;;;30.47;4.43;;;;;;;;;;4972528;28;20281;-79
2023/11/14 06:14:47;;;;;;;26.13;3.87;;;;;;;;;;4973257;28;20695;-80
2023/11/14 06:17:14;;;;;;;27.23;4.20;;;;;;;;;;4956563;28;20294;-79
2023/11/14 06:19:41;;;;;;;27.37;3.93;;;;;;;;;;4954015;29;20211;-79
2023/11/14 06:22:09;;;;;;;28.50;4.30;;;;;;;;;;4954086;29;20226;-79
2023/11/14 06:24:37;;;;;;;22.80;3.63;;;;;;;;;;4953444;29;20227;-78
2023/11/14 06:27:05;;;;;;;27.20;4.57;;;;;;;;;;4953936;28;20207;-78
2023/11/14 06:29:31;;;;;;;30.27;4.73;;;;;;;;;;4953068;28;20302;-79
2023/11/14 06:31:58;;;;;;;25.73;3.97;;;;;;;;;;4953177;28;20773;-80
2023/11/14 06:34:25;;;;;;;28.43;4.27;;;;;;;;;;4958457;28;20285;-79
2023/11/14 06:36:52;;;;;;;29.90;3.83;;;;;;;;;;4972218;28;20322;-78
2023/11/14 06:39:19;;;;;;;24.17;4.30;;;;;;;;;;4973019;28;20259;-79
2023/11/14 06:41:52;;;;;;;25.27;4.13;;;;;;;;;;4972983;28;20311;-79
2023/11/14 06:44:19;;;;;;;21.87;3.80;;;;;;;;;;4972157;28;20288;-80
2023/11/14 06:46:46;;;;;;;27.67;3.83;;;;;;;;;;4972637;28;20753;-80
2023/11/14 06:49:14;;;;;;;18.33;3.63;;;;;;;;;;4972455;28;20214;-79
2023/11/14 06:51:41;;;;;;;28.83;4.60;;;;;;;;;;4972605;28;20198;-78
2023/11/14 06:54:09;;;;;;;27.60;4.30;;;;;;;;;;4972573;28;20329;-80
2023/11/14 06:56:36;;;;;;;32.53;4.07;;;;;;;;;;4972721;28;20237;-79
2023/11/14 06:59:05;;;;;;;26.97;4.10;;;;;;;;;;4972811;28;20209;-80
2023/11/14 07:01:33;;;;;;;28.83;3.87;;;;;;;;;;4972653;28;20584;-79
2023/11/14 07:04:00;;;;;;;25.03;3.93;;;;;;;;;;4972631;28;20668;-78
2023/11/14 07:06:28;;;;;;;24.63;4.60;;;;;;;;;;4972567;28;20206;-77
2023/11/14 07:08:56;;;;;;;29.20;4.50;;;;;;;;;;4972353;28;20629;-80
2023/11/14 07:11:23;;;;;;;25.17;4.33;;;;;;;;;;4972726;28;20202;-79
2023/11/14 07:13:51;;;;;;;22.77;3.83;;;;;;;;;;4972151;28;20809;-79
2023/11/14 07:16:19;;;;;;;28.73;4.00;;;;;;;;;;4972245;28;20204;-79
2023/11/14 07:18:47;;;;;;;21.23;3.60;;;;;;;;;;4962662;28;20195;-79
2023/11/14 07:21:15;;;;;;;23.67;3.80;;;;;;;;;;4953273;29;20202;-79
2023/11/14 07:23:42;;;;;;;28.20;3.63;;;;;;;;;;4952809;29;20199;-79
2023/11/14 07:26:10;;;;;;;24.53;3.97;;;;;;;;;;4953146;28;20207;-78
2023/11/14 07:28:38;;;;;;;21.03;3.70;;;;;;;;;;4953162;29;20202;-79
2023/11/14 07:31:06;;;;;;;23.60;3.50;;;;;;;;;;4952872;29;20294;-79
2023/11/14 07:33:34;;;;;;;20.87;4.10;;;;;;;;;;4952412;28;20326;-79
2023/11/14 07:36:01;;;;;;;19.77;3.83;;;;;;;;;;4971646;28;20580;-79
2023/11/14 07:38:29;;;;;;;23.63;3.97;;;;;;;;;;4969042;28;20884;-77
2023/11/14 07:40:56;;;;;;;22.77;3.77;;;;;;;;;;4973056;28;20319;-79
2023/11/14 07:43:24;;;;;;;25.03;3.50;;;;;;;;;;4972469;28;20329;-78
2023/11/14 07:45:52;;;;;;;26.33;3.80;;;;;;;;;;4971977;28;20210;-77
2023/11/14 07:48:19;;;;;;;23.97;4.40;;;;;;;;;;4968788;28;20198;-80
2023/11/14 07:50:49;;;;;;;24.27;4.30;;;;;;;;;;4970742;28;20304;-79
2023/11/14 07:53:17;;;;;;;26.83;4.03;;;;;;;;;;4972373;28;20290;-80
2023/11/14 07:55:45;;;;;;;20.57;3.47;;;;;;;;;;4972505;28;20676;-80
2023/11/14 07:58:12;;;;;;;24.63;3.13;;;;;;;;;;4961575;28;20313;-77
2023/11/14 08:00:40;;;;;;;20.80;3.40;;;;;;;;;;4952832;29;20303;-79
2023/11/14 08:03:08;;;;;;;22.57;3.47;;;;;;;;;;4969200;28;20199;-80
2023/11/14 08:05:40;;;;;;;18.30;3.60;;;;;;;;;;4963004;28;20207;-79
2023/11/14 08:08:08;;;;;;;25.83;3.80;;;;;;;;;;4975666;28;20707;-80
2023/11/14 08:10:36;;;;;;;21.40;3.43;;;;;;;;;;4975076;28;20234;-79
2023/11/14 08:13:03;;;;;;;23.87;3.73;;;;;;;;;;4975102;28;20241;-80
2023/11/14 08:15:30;;;;;;;23.07;3.83;;;;;;;;;;4975173;28;20293;-79
2023/11/14 08:17:57;;;;;;;18.70;3.47;;;;;;;;;;4975420;28;20302;-79
2023/11/14 08:20:27;;;;;;;16.97;3.23;;;;;;;;;;4975607;28;20238;-79
2023/11/14 08:22:55;;;;;;;21.70;3.77;;;;;;;;;;4975292;28;20390;-79
2023/11/14 08:25:23;;;;;;;16.23;3.27;;;;;;;;;;4974804;28;20667;-79
2023/11/14 08:27:50;;;;;;;18.60;3.10;;;;;;;;;;4974964;28;20198;-78
2023/11/14 08:30:18;;;;;;;14.87;3.33;;;;;;;;;;4974834;28;20261;-78
2023/11/14 08:32:47;;;;;;;16.53;2.90;;;;;;;;;;4967431;28;20272;-79
2023/11/14 08:35:14;;;;;;;18.80;3.30;;;;;;;;;;4975196;28;20669;-79
2023/11/14 08:37:42;;;;;;;17.17;3.40;;;;;;;;;;4963087;28;20237;-79
2023/11/14 08:40:12;;;;;;;20.13;3.43;;;;;;;;;;4967259;28;20211;-79
2023/11/14 08:42:40;;;;;;;16.60;2.83;;;;;;;;;;4969345;28;20289;-79
2023/11/14 08:45:08;;;;;;;19.87;3.53;;;;;;;;;;4974144;28;20206;-79
2023/11/14 08:47:35;;;;;;;25.90;3.63;;;;;;;;;;4965348;28;20656;-79
2023/11/14 08:50:04;;;;;;;19.63;3.80;;;;;;;;;;4974460;28;20578;-78
2023/11/14 08:52:31;;;;;;;25.50;3.57;;;;;;;;;;4956212;28;20207;-79
2023/11/14 08:54:58;;;;;;;15.73;2.80;;;;;;;;;;4973471;28;20284;-79
2023/11/14 08:57:25;;;;;;;18.50;3.07;;;;;;;;;;4974679;28;20293;-78
2023/11/14 08:59:54;;;;;;;15.23;3.27;;;;;;;;;;4974700;28;20218;-78
2023/11/14 09:02:21;;;;;;;19.00;3.30;;;;;;;;;;4974675;28;20207;-79
2023/11/14 09:04:48;;;;;;;22.73;3.50;;;;;;;;;;4974347;28;20290;-80
2023/11/14 09:07:15;;;;;;;16.97;2.83;;;;;;;;;;4974625;28;20269;-77
2023/11/14 09:09:44;;;;;;;16.73;3.33;;;;;;;;;;4974183;28;20198;-78
2023/11/14 09:12:12;;;;;;;18.97;3.37;;;;;;;;;;4974809;28;20198;-77
2023/11/14 09:14:40;;;;;;;15.27;3.17;;;;;;;;;;4974190;28;20660;-78
2023/11/14 09:17:10;;;;;;;19.73;3.03;;;;;;;;;;4974088;28;20198;-78
2023/11/14 09:19:37;;;;;;;15.50;3.07;;;;;;;;;;4974299;28;20198;-79
2023/11/14 09:22:05;;;;;;;17.13;3.00;;;;;;;;;;4974350;28;20234;-79
2023/11/14 09:24:32;;;;;;;21.83;3.50;;;;;;;;;;4973691;28;20242;-78
2023/11/14 09:26:59;;;;;;;20.53;2.93;;;;;;;;;;4974168;28;20289;-78
2023/11/14 09:29:26;;;;;;;16.27;3.03;;;;;;;;;;4974345;28;20646;-79
2023/11/14 09:31:54;;;;;;;16.27;3.10;;;;;;;;;;4973940;28;20301;-78
2023/11/14 09:34:23;;;;;;;20.47;2.80;;;;;;;;;;4973862;28;20226;-79
2023/11/14 09:36:50;;;;;;;17.57;2.63;;;;;;;;;;4973834;28;20254;-78
2023/11/14 09:39:19;;;;;;;12.00;2.53;;;;;;;;;;4973731;28;20203;-79
2023/11/14 09:41:46;;;;;;;15.83;2.93;;;;;;;;;;4973753;28;20202;-78
2023/11/14 09:44:13;;;;;;;19.33;3.30;;;;;;;;;;4974015;28;20296;-78
2023/11/14 09:46:41;;;;;;;15.80;2.87;;;;;;;;;;4973987;28;20237;-80
2023/11/14 09:49:09;;;;;;;15.03;2.90;;;;;;;;;;4973631;28;20231;-78
2023/11/14 09:51:38;;;;;;;12.93;3.23;;;;;;;;;;4973814;28;20258;-80
2023/11/14 09:54:06;;;;;;;14.70;2.90;;;;;;;;;;4973139;28;20226;-78
2023/11/14 09:56:34;;;;;;;16.33;2.90;;;;;;;;;;4974088;28;20624;-77
2023/11/14 09:59:01;;;;;;;20.73;2.93;;;;;;;;;;4974141;28;20207;-80
2023/11/14 10:01:29;;;;;;;19.13;2.93;;;;;;;;;;4972768;28;20570;-79
2023/11/14 10:03:56;;;;;;;13.20;2.63;;;;;;;;;;4973550;28;20198;-80
2023/11/14 10:06:23;;;;;;;14.30;3.00;;;;;;;;;;4973499;28;20208;-80
2023/11/14 10:08:54;;;;;;;19.37;3.30;;;;;;;;;;4973982;28;20257;-80
2023/11/14 10:11:21;;;;;;;14.53;2.43;;;;;;;;;;4973383;28;20198;-78
2023/11/14 10:13:49;;;;;;;18.47;3.93;;;;;;;;;;4973359;28;20234;-79
2023/11/14 10:16:18;;;;;;;18.90;3.50;;;;;;;;;;4973264;28;20215;-78
2023/11/14 10:18:45;;;;;;;16.53;3.00;;;;;;;;;;4973747;28;20233;-77
2023/11/14 10:21:28;;;;;;;16.00;3.23;;;;;;;;;;4972769;28;20281;-79
2023/11/14 10:23:58;;;;;;;17.17;4.17;;;;;;;;;;4973047;28;20663;-80
2023/11/14 10:26:25;;;;;;;16.83;3.37;;;;;;;;;;4973108;28;20202;-79
2023/11/14 10:28:54;;;;;;;17.57;3.30;;;;;;;;;;4973070;28;20644;-80
2023/11/14 10:31:34;;;;;;;20.83;4.20;;;;;;;;;;4972998;28;20249;-80
2023/11/14 10:34:01;;;;;;;14.40;2.83;;;;;;;;;;4973148;28;20241;-80
2023/11/14 10:36:29;;;;;;;19.77;3.70;;;;;;;;;;4972469;28;20333;-80
2023/11/14 10:39:04;;;;;;;11.40;2.73;;;;;;;;;;4973227;28;20238;-79
2023/11/14 10:41:33;;;;;;;16.87;2.73;;;;;;;;;;4972985;28;20281;-80
2023/11/14 10:44:09;;;;;;;14.73;2.93;;;;;;;;;;4973081;28;20210;-80
2023/11/14 10:46:37;;;;;;;13.10;2.50;;;;;;;;;;4972747;28;20202;-79
2023/11/14 10:49:08;;;;;;;11.70;3.00;;;;;;;;;;4972891;28;20738;-79
2023/11/14 10:51:37;;;;;;;16.60;3.20;;;;;;;;;;4972405;28;20199;-80
2023/11/14 10:54:06;;;;;;;13.70;2.73;;;;;;;;;;4972800;28;20313;-79
2023/11/14 10:56:35;;;;;;;12.03;3.00;;;;;;;;;;4972432;28;20206;-80
2023/11/14 10:59:03;;;;;;;15.67;3.07;;;;;;;;;;4972713;28;20195;-79
2023/11/14 11:01:32;;;;;;;11.43;3.07;;;;;;;;;;4972876;28;20210;-78
2023/11/14 11:04:00;;;;;;;12.00;2.97;;;;;;;;;;4972528;28;20202;-79
2023/11/14 11:06:27;;;;;;;12.40;2.60;;;;;;;;;;4972464;28;20297;-80
2023/11/14 11:08:55;;;;;;;14.27;3.53;;;;;;;;;;4972438;28;20222;-79
2023/11/14 11:11:25;;;;;;;13.33;3.00;;;;;;;;;;4972764;28;20285;-79
2023/11/14 11:13:53;;;;;;;13.27;3.20;;;;;;;;;;4973674;28;20236;-79
2023/11/14 11:16:35;;;;;;;12.33;3.10;;;;;;;;;;4976689;28;20292;-78
2023/11/14 11:19:03;;;;;;;14.27;3.23;;;;;;;;;;4975745;28;20296;-79
2023/11/14 11:21:30;;;;;;;12.30;2.63;;;;;;;;;;4976841;28;20202;-78
2023/11/14 11:24:12;;;;;;;13.33;2.73;;;;;;;;;;4976187;28;20238;-78
2023/11/14 11:26:54;;;;;;;13.93;2.97;;;;;;;;;;4976326;28;20233;-79
2023/11/14 11:29:37;;;;;;;13.87;3.63;;;;;;;;;;4964149;28;20233;-79
2023/11/14 11:32:23;;;;;;;12.30;3.43;;;;;;;;;;4964545;28;20195;-79
2023/11/14 11:35:15;;;;;;;16.33;4.20;;;;;;;;;;4975670;28;20236;-79
2023/11/14 11:37:44;;;;;;;13.20;3.50;;;;;;;;;;4975642;28;20802;-78
2023/11/14 11:40:12;;;;;;;11.27;2.90;;;;;;;;;;4975910;28;20742;-76
2023/11/14 11:42:39;;;;;;;15.63;4.30;;;;;;;;;;4976036;28;20540;-79
2023/11/14 11:45:07;;;;;;;11.87;3.73;;;;;;;;;;4976378;28;20205;-79
2023/11/14 11:47:36;;;;;;;11.40;4.20;;;;;;;;;;4975739;28;20205;-79
2023/11/14 11:50:19;;;;;;;14.00;3.43;;;;;;;;;;4975913;28;20198;-78
2023/11/14 11:52:58;;;;;;;10.90;2.60;;;;;;;;;;4976100;28;20213;-78
2023/11/14 11:55:26;;;;;;;16.83;4.77;;;;;;;;;;4975805;28;20232;-79
2023/11/14 11:57:58;;;;;;;11.13;3.80;;;;;;;;;;4976137;28;20285;-77
2023/11/14 12:00:26;;;;;;;8.77;3.60;;;;;;;;;;4975917;28;20202;-77
2023/11/14 12:02:54;;;;;;;10.77;3.37;;;;;;;;;;4975454;28;20293;-78
2023/11/14 12:05:23;;;;;;;9.20;3.10;;;;;;;;;;4975727;28;20210;-78
2023/11/14 12:07:51;;;;;;;10.97;3.03;;;;;;;;;;4975680;28;20206;-79
2023/11/14 12:10:19;;;;;;;7.35;3.00;;;;;;;;;;4975779;28;20763;-78
2023/11/14 12:12:47;;;;;;;8.20;2.55;;;;;;;;;;4975741;28;20198;-78
2023/11/14 12:15:17;;;;;;;8.70;2.38;;;;;;;;;;4975212;28;20234;-77
2023/11/14 12:18:03;;;;;;;4.88;2.60;;;;;;;;;;4975141;28;20203;-77
2023/11/14 12:20:31;;;;;;;8.80;2.13;;;;;;;;;;4975804;28;20694;-79
2023/11/14 12:23:00;;;;;;;4.20;1.38;;;;;;;;;;4975263;28;20289;-79
2023/11/14 12:25:27;;;;;;;4.53;1.40;;;;;;;;;;4974964;28;20202;-79
2023/11/14 12:27:58;;;;;;;10.13;2.10;;;;;;;;;;4975356;28;20289;-79
2023/11/14 12:30:26;;;;;;;6.55;1.30;;;;;;;;;;4975753;28;20556;-79
2023/11/14 12:33:04;;;;;;;7.63;1.80;;;;;;;;;;4974792;28;20257;-79
2023/11/14 12:35:44;;;;;;;6.50;1.50;;;;;;;;;;4974916;28;20329;-79
2023/11/14 12:38:13;;;;;;;7.20;1.60;;;;;;;;;;4974807;28;20240;-79
2023/11/14 12:40:40;;;;;;;5.20;1.40;;;;;;;;;;4975346;28;20195;-78
2023/11/14 12:43:09;;;;;;;6.13;1.50;;;;;;;;;;4975109;28;20296;-79
2023/11/14 12:45:45;;;;;;;5.28;1.40;;;;;;;;;;4974763;28;20700;-79
2023/11/14 12:48:13;;;;;;;4.50;1.30;;;;;;;;;;4974687;28;20719;-79
2023/11/14 12:50:40;;;;;;;5.18;1.48;;;;;;;;;;4974861;28;20281;-79
2023/11/14 12:53:10;;;;;;;5.40;1.27;;;;;;;;;;4974772;28;20655;-79
2023/11/14 12:55:39;;;;;;;3.72;0.90;;;;;;;;;;4974804;28;20234;-79
2023/11/14 12:58:07;;;;;;;3.65;1.20;;;;;;;;;;4974826;28;20208;-79
2023/11/14 13:00:34;;;;;;;4.03;0.98;;;;;;;;;;4974827;28;20210;-79
2023/11/14 13:03:02;;;;;;;5.43;0.93;;;;;;;;;;4975020;28;20198;-80
2023/11/14 13:05:29;;;;;;;3.78;1.00;;;;;;;;;;4974274;28;20210;-80
2023/11/14 13:07:56;;;;;;;2.65;0.80;;;;;;;;;;4974604;28;20213;-79
2023/11/14 13:10:25;;;;;;;3.83;1.00;;;;;;;;;;4974253;28;20679;-79
2023/11/14 13:12:53;;;;;;;2.80;0.80;;;;;;;;;;4974674;28;20234;-79
2023/11/14 13:15:24;;;;;;;2.25;0.80;;;;;;;;;;4974083;28;20328;-79
2023/11/14 13:17:51;;;;;;;3.05;1.10;;;;;;;;;;4974786;28;20206;-79
2023/11/14 13:20:18;;;;;;;4.07;0.88;;;;;;;;;;4974183;28;20285;-80
2023/11/14 13:22:45;;;;;;;3.40;0.80;;;;;;;;;;4974460;28;20618;-79
2023/11/14 13:25:15;;;;;;;4.03;1.13;;;;;;;;;;4974362;28;20194;-79
2023/11/14 13:27:42;;;;;;;4.07;1.23;;;;;;;;;;4974523;28;20206;-79
2023/11/14 13:30:11;;;;;;;5.57;0.95;;;;;;;;;;4973966;28;20285;-79
2023/11/14 13:32:38;;;;;;;4.63;1.10;;;;;;;;;;4974134;28;20288;-79
2023/11/14 13:35:06;;;;;;;5.68;1.27;;;;;;;;;;4974103;28;20612;-79
2023/11/14 13:37:33;;;;;;;4.93;1.05;;;;;;;;;;4972903;28;20599;-79
2023/11/14 13:40:00;;;;;;;3.92;0.90;;;;;;;;;;4974015;28;20206;-80
2023/11/14 13:42:28;;;;;;;5.45;1.35;;;;;;;;;;4973736;28;20199;-80
2023/11/14 13:44:55;;;;;;;4.38;1.02;;;;;;;;;;4973521;28;20316;-79
2023/11/14 13:47:24;;;;;;;4.75;1.20;;;;;;;;;;4973900;28;20257;-78
2023/11/14 13:49:51;;;;;;;6.40;1.15;;;;;;;;;;4974289;28;20208;-80
2023/11/14 13:52:19;;;;;;;4.00;0.90;;;;;;;;;;4973852;28;20296;-80
2023/11/14 13:54:46;;;;;;;4.97;0.88;;;;;;;;;;4973494;28;20312;-80
2023/11/14 13:57:15;;;;;;;4.93;1.00;;;;;;;;;;4973710;28;20289;-80
2023/11/14 13:59:42;;;;;;;4.60;1.00;;;;;;;;;;4973254;28;20707;-80
2023/11/14 14:02:09;;;;;;;4.07;0.90;;;;;;;;;;4973740;28;20672;-79
2023/11/14 14:04:38;;;;;;;5.80;1.15;;;;;;;;;;4973947;28;20234;-80
2023/11/14 14:07:05;;;;;;;7.03;1.00;;;;;;;;;;4973455;28;20742;-79
2023/11/14 14:09:33;;;;;;;5.97;0.90;;;;;;;;;;4973365;28;20230;-79
2023/11/14 14:12:01;;;;;;;4.60;1.10;;;;;;;;;;4973579;28;20198;-80
2023/11/14 14:14:32;;;;;;;5.28;1.00;;;;;;;;;;4973038;28;20226;-80
2023/11/14 14:16:59;;;;;;;4.35;1.20;;;;;;;;;;4973731;28;20768;-78
2023/11/14 14:19:26;;;;;;;6.63;1.30;;;;;;;;;;4973481;28;20226;-80
2023/11/14 14:21:55;;;;;;;7.50;1.50;;;;;;;;;;4973031;28;20206;-79
2023/11/14 14:24:24;;;;;;;3.15;0.98;;;;;;;;;;4973070;28;20301;-80
2023/11/14 14:26:51;;;;;;;10.52;1.20;;;;;;;;;;4973046;28;20206;-80
2023/11/14 14:29:18;;;;;;;6.30;1.40;;;;;;;;;;4973315;28;20245;-80
2023/11/14 14:31:46;;;;;;;6.15;1.33;;;;;;;;;;4965245;28;20230;-80
2023/11/14 14:34:13;;;;;;;7.47;1.23;;;;;;;;;;4973032;28;20209;-80
2023/11/14 14:36:40;;;;;;;7.35;1.52;;;;;;;;;;4973029;28;20321;-80